createdAt,value
2017-07-20T00:02:47.124Z,0
2017-07-20T00:12:54.925Z,0
2017-07-20T00:22:47.349Z,0
2017-07-20T00:32:47.085Z,0
2017-07-20T00:42:47.093Z,0
2017-07-20T00:52:47.082Z,0
2017-07-20T01:02:47.144Z,0
2017-07-20T01:12:47.092Z,0
2017-07-20T01:22:47.078Z,0
2017-07-20T01:32:47.104Z,0
2017-07-20T01:42:47.114Z,0
2017-07-20T01:52:47.161Z,0
2017-07-20T02:02:47.130Z,0
2017-07-20T02:12:47.079Z,0
2017-07-20T02:22:47.098Z,0
2017-07-20T02:32:47.127Z,0
2017-07-20T02:42:47.169Z,0
2017-07-20T02:52:47.046Z,0
2017-07-20T03:02:47.105Z,4
2017-07-20T03:12:47.088Z,8
2017-07-20T03:22:47.093Z,20
2017-07-20T03:32:47.045Z,28
2017-07-20T03:42:47.091Z,40
2017-07-20T03:52:47.122Z,140
2017-07-20T04:02:47.113Z,416
2017-07-20T04:12:47.075Z,720
2017-07-20T04:22:47.051Z,656
2017-07-20T04:32:47.091Z,364
2017-07-20T04:42:47.114Z,252
2017-07-20T04:52:47.075Z,280
2017-07-20T05:02:47.118Z,296
2017-07-20T05:12:47.191Z,152
2017-07-20T05:22:47.066Z,248
2017-07-20T05:32:47.097Z,236
2017-07-20T05:42:47.125Z,324
2017-07-20T05:52:47.131Z,380
2017-07-20T06:02:47.201Z,560
2017-07-20T06:12:47.101Z,772
2017-07-20T06:22:47.050Z,852
2017-07-20T06:32:47.129Z,1840
2017-07-20T06:42:47.079Z,3296
2017-07-20T06:52:47.117Z,6320
2017-07-20T07:02:47.118Z,9592
2017-07-20T07:12:47.169Z,11072
2017-07-20T07:22:47.130Z,9292
2017-07-20T07:32:47.121Z,8936
2017-07-20T07:42:47.092Z,7700
2017-07-20T07:52:47.286Z,17780
2017-07-20T08:02:47.193Z,5688
2017-07-20T08:12:47.231Z,3684
2017-07-20T08:22:47.218Z,5052
2017-07-20T08:32:47.126Z,8592
2017-07-20T08:42:47.196Z,10724
2017-07-20T08:52:47.132Z,6780
2017-07-20T09:02:47.167Z,13004
2017-07-20T09:12:47.120Z,23744
2017-07-20T09:22:47.143Z,12400
2017-07-20T09:32:47.129Z,26336
2017-07-20T09:42:47.100Z,23136
2017-07-20T09:52:47.103Z,26464
2017-07-20T10:02:47.126Z,13740
2017-07-20T10:12:47.136Z,15116
2017-07-20T10:22:47.246Z,15272
2017-07-20T10:32:47.116Z,12196
2017-07-20T10:42:47.146Z,13048
2017-07-20T10:52:47.133Z,23840
2017-07-20T11:02:47.166Z,16948
2017-07-20T11:12:47.157Z,14080
2017-07-20T11:22:47.164Z,15352
2017-07-20T11:32:47.154Z,12192
2017-07-20T11:42:47.159Z,21376
2017-07-20T11:52:47.202Z,21216
2017-07-20T12:02:47.155Z,18912
2017-07-20T12:12:47.191Z,15592
2017-07-20T12:22:47.153Z,16796
2017-07-20T12:32:47.145Z,9584
2017-07-20T12:42:47.236Z,7128
2017-07-20T12:52:47.183Z,6468
2017-07-20T13:02:47.232Z,7124
2017-07-20T13:12:47.210Z,1464
2017-07-20T13:22:47.207Z,16184
2017-07-20T13:32:47.199Z,15432
2017-07-20T13:42:47.425Z,11784
2017-07-20T13:52:47.232Z,13976
2017-07-20T14:02:47.186Z,13364
2017-07-20T14:12:47.144Z,11912
2017-07-20T14:22:47.200Z,7968
2017-07-20T14:32:47.211Z,5060
2017-07-20T14:42:47.253Z,6040
2017-07-20T14:52:47.212Z,5392
2017-07-20T15:02:47.272Z,7440
2017-07-20T15:12:47.580Z,7964
2017-07-20T15:22:47.298Z,10060
2017-07-20T15:32:47.295Z,9244
2017-07-20T15:42:47.208Z,5744
2017-07-20T15:52:47.193Z,4696
2017-07-20T16:02:47.157Z,5572
2017-07-20T16:12:47.329Z,3660
2017-07-20T16:22:47.241Z,3528
2017-07-20T16:32:47.228Z,3288
2017-07-20T16:42:47.222Z,3348
2017-07-20T16:52:47.249Z,3804
2017-07-20T17:02:47.308Z,4216
2017-07-20T17:12:47.299Z,4372
2017-07-20T17:22:47.220Z,3960
2017-07-20T17:32:47.302Z,3100
2017-07-20T17:42:47.597Z,4164
2017-07-20T17:52:47.336Z,5152
2017-07-20T18:02:47.197Z,2444
2017-07-20T18:12:47.273Z,2756
2017-07-20T18:22:47.257Z,2224
2017-07-20T18:32:47.207Z,1832
2017-07-20T18:42:47.257Z,1564
2017-07-20T18:52:47.254Z,900
2017-07-20T19:02:47.217Z,660
2017-07-20T19:12:47.283Z,516
2017-07-20T19:22:47.242Z,280
2017-07-20T19:32:47.254Z,160
2017-07-20T19:42:47.291Z,76
2017-07-20T19:52:47.271Z,28
2017-07-20T20:02:47.402Z,8
2017-07-20T20:12:47.285Z,4
2017-07-20T20:22:47.252Z,4
2017-07-20T20:32:47.343Z,0
2017-07-20T20:42:47.301Z,0
2017-07-20T20:52:47.288Z,0
2017-07-20T21:02:47.320Z,0
2017-07-20T21:12:47.336Z,0
2017-07-20T21:22:47.369Z,0
2017-07-20T21:32:47.325Z,0
2017-07-20T21:42:47.220Z,0
2017-07-20T21:52:47.278Z,0
2017-07-20T22:02:47.247Z,0
2017-07-20T22:12:47.294Z,0
2017-07-20T22:22:47.236Z,0
2017-07-20T22:32:47.359Z,0
2017-07-20T22:42:47.415Z,0
2017-07-20T22:52:47.399Z,0
2017-07-20T23:02:47.240Z,0
2017-07-20T23:12:47.465Z,0
2017-07-20T23:22:47.329Z,0
2017-07-20T23:32:47.255Z,0
2017-07-20T23:42:47.244Z,0
2017-07-20T23:52:47.247Z,0
